sensor_id;sensor_type;location;lat;lon;timestamp;temperature;humidity
39983;DHT22;25670;44.782;10.356;2023-05-18T00:04:24;12.50;99.90
39983;DHT22;25670;44.782;10.356;2023-05-18T00:06:51;12.50;99.90
39983;DHT22;25670;44.782;10.356;2023-05-18T00:09:29;12.40;99.90
39983;DHT22;25670;44.782;10.356;2023-05-18T00:21:46;12.40;99.90
39983;DHT22;25670;44.782;10.356;2023-05-18T00:24:13;12.40;99.90
39983;DHT22;25670;44.782;10.356;2023-05-18T00:26:42;12.40;99.90
39983;DHT22;25670;44.782;10.356;2023-05-18T00:31:37;12.40;99.90
39983;DHT22;25670;44.782;10.356;2023-05-18T00:34:07;12.40;99.90
39983;DHT22;25670;44.782;10.356;2023-05-18T00:36:34;12.40;99.90
39983;DHT22;25670;44.782;10.356;2023-05-18T00:43:55;12.60;99.90
39983;DHT22;25670;44.782;10.356;2023-05-18T00:46:22;12.60;99.90
39983;DHT22;25670;44.782;10.356;2023-05-18T00:51:17;12.50;99.90
39983;DHT22;25670;44.782;10.356;2023-05-18T00:58:39;12.40;99.90
39983;DHT22;25670;44.782;10.356;2023-05-18T01:03:37;12.40;99.90
39983;DHT22;25670;44.782;10.356;2023-05-18T01:06:05;12.40;99.90
39983;DHT22;25670;44.782;10.356;2023-05-18T01:11:13;12.40;99.90
39983;DHT22;25670;44.782;10.356;2023-05-18T01:16:19;12.40;99.90
39983;DHT22;25670;44.782;10.356;2023-05-18T01:18:55;12.40;99.90
39983;DHT22;25670;44.782;10.356;2023-05-18T01:25:01;12.40;99.90
39983;DHT22;25670;44.782;10.356;2023-05-18T01:27:21;12.40;99.90
39983;DHT22;25670;44.782;10.356;2023-05-18T01:29:51;12.50;99.90
39983;DHT22;25670;44.782;10.356;2023-05-18T01:42:16;12.50;99.90
39983;DHT22;25670;44.782;10.356;2023-05-18T01:44:49;12.40;99.90
39983;DHT22;25670;44.782;10.356;2023-05-18T01:47:18;12.40;99.90
39983;DHT22;25670;44.782;10.356;2023-05-18T01:52:32;12.40;99.90
39983;DHT22;25670;44.782;10.356;2023-05-18T01:55:22;12.30;99.90
39983;DHT22;25670;44.782;10.356;2023-05-18T01:57:51;12.40;99.90
39983;DHT22;25670;44.782;10.356;2023-05-18T02:00:21;12.30;99.90
39983;DHT22;25670;44.782;10.356;2023-05-18T02:02:48;12.30;99.90
39983;DHT22;25670;44.782;10.356;2023-05-18T02:12:46;12.30;99.90
39983;DHT22;25670;44.782;10.356;2023-05-18T02:15:17;12.30;99.90
39983;DHT22;25670;44.782;10.356;2023-05-18T02:17:44;12.80;99.90
39983;DHT22;25670;44.782;10.356;2023-05-18T02:25:07;12.40;99.90
39983;DHT22;25670;44.782;10.356;2023-05-18T02:30:23;12.30;99.90
39983;DHT22;25670;44.782;10.356;2023-05-18T02:32:53;12.40;99.90
39983;DHT22;25670;44.782;10.356;2023-05-18T02:40:15;12.30;99.90
39983;DHT22;25670;44.782;10.356;2023-05-18T02:45:09;12.30;99.90
39983;DHT22;25670;44.782;10.356;2023-05-18T02:47:36;12.30;99.90
39983;DHT22;25670;44.782;10.356;2023-05-18T02:50:02;12.30;99.90
39983;DHT22;25670;44.782;10.356;2023-05-18T02:52:30;12.30;99.90
39983;DHT22;25670;44.782;10.356;2023-05-18T03:00:16;12.40;99.90
39983;DHT22;25670;44.782;10.356;2023-05-18T03:02:44;12.30;99.90
39983;DHT22;25670;44.782;10.356;2023-05-18T03:10:15;12.30;99.90
39983;DHT22;25670;44.782;10.356;2023-05-18T03:12:42;12.20;99.90
39983;DHT22;25670;44.782;10.356;2023-05-18T03:15:09;12.20;99.90
39983;DHT22;25670;44.782;10.356;2023-05-18T03:17:36;12.10;99.90
39983;DHT22;25670;44.782;10.356;2023-05-18T03:20:03;12.10;99.90
39983;DHT22;25670;44.782;10.356;2023-05-18T03:37:16;11.80;99.90
39983;DHT22;25670;44.782;10.356;2023-05-18T03:42:11;11.80;99.90
39983;DHT22;25670;44.782;10.356;2023-05-18T03:44:37;11.80;99.90
39983;DHT22;25670;44.782;10.356;2023-05-18T03:47:03;11.90;99.90
39983;DHT22;25670;44.782;10.356;2023-05-18T03:49:33;11.80;99.90
39983;DHT22;25670;44.782;10.356;2023-05-18T03:52:02;11.80;99.90
39983;DHT22;25670;44.782;10.356;2023-05-18T03:54:29;11.80;99.90
39983;DHT22;25670;44.782;10.356;2023-05-18T04:04:19;12.10;99.90
39983;DHT22;25670;44.782;10.356;2023-05-18T04:06:48;12.10;99.90
39983;DHT22;25670;44.782;10.356;2023-05-18T04:09:17;12.20;99.90
39983;DHT22;25670;44.782;10.356;2023-05-18T04:14:12;12.20;99.90
39983;DHT22;25670;44.782;10.356;2023-05-18T04:16:40;12.30;99.90
39983;DHT22;25670;44.782;10.356;2023-05-18T04:19:07;12.30;99.90
39983;DHT22;25670;44.782;10.356;2023-05-18T04:21:33;12.30;99.90
39983;DHT22;25670;44.782;10.356;2023-05-18T04:24:02;12.40;99.90
39983;DHT22;25670;44.782;10.356;2023-05-18T04:26:34;12.40;99.90
39983;DHT22;25670;44.782;10.356;2023-05-18T04:29:01;12.40;99.90
39983;DHT22;25670;44.782;10.356;2023-05-18T04:31:28;12.50;99.90
39983;DHT22;25670;44.782;10.356;2023-05-18T04:33:55;12.50;99.90
39983;DHT22;25670;44.782;10.356;2023-05-18T04:36:22;12.50;99.90
39983;DHT22;25670;44.782;10.356;2023-05-18T04:38:51;12.60;99.90
39983;DHT22;25670;44.782;10.356;2023-05-18T04:41:18;12.60;99.90
39983;DHT22;25670;44.782;10.356;2023-05-18T04:43:47;12.70;99.90
39983;DHT22;25670;44.782;10.356;2023-05-18T04:48:43;12.80;99.90
39983;DHT22;25670;44.782;10.356;2023-05-18T04:51:09;12.80;99.90
39983;DHT22;25670;44.782;10.356;2023-05-18T04:53:35;12.90;99.90
39983;DHT22;25670;44.782;10.356;2023-05-18T04:56:04;13.00;99.90
39983;DHT22;25670;44.782;10.356;2023-05-18T04:58:33;13.10;99.90
39983;DHT22;25670;44.782;10.356;2023-05-18T05:00:59;13.20;99.90
39983;DHT22;25670;44.782;10.356;2023-05-18T05:03:26;13.40;99.90
39983;DHT22;25670;44.782;10.356;2023-05-18T05:05:53;13.40;99.90
39983;DHT22;25670;44.782;10.356;2023-05-18T05:08:19;13.50;99.90
39983;DHT22;25670;44.782;10.356;2023-05-18T05:10:46;13.60;99.90
39983;DHT22;25670;44.782;10.356;2023-05-18T05:13:12;13.50;99.90
39983;DHT22;25670;44.782;10.356;2023-05-18T05:15:38;13.50;99.90
39983;DHT22;25670;44.782;10.356;2023-05-18T05:18:04;13.60;99.90
39983;DHT22;25670;44.782;10.356;2023-05-18T05:20:31;13.60;99.90
39983;DHT22;25670;44.782;10.356;2023-05-18T05:22:57;13.50;99.90
39983;DHT22;25670;44.782;10.356;2023-05-18T05:25:25;13.60;99.90
39983;DHT22;25670;44.782;10.356;2023-05-18T05:27:52;13.80;99.90
39983;DHT22;25670;44.782;10.356;2023-05-18T05:30:20;13.80;99.90
39983;DHT22;25670;44.782;10.356;2023-05-18T05:32:46;13.80;99.90
39983;DHT22;25670;44.782;10.356;2023-05-18T05:35:12;13.90;99.90
39983;DHT22;25670;44.782;10.356;2023-05-18T05:37:40;14.00;99.90
39983;DHT22;25670;44.782;10.356;2023-05-18T05:40:07;14.00;99.90
39983;DHT22;25670;44.782;10.356;2023-05-18T05:42:39;14.10;99.90
39983;DHT22;25670;44.782;10.356;2023-05-18T05:45:07;14.20;99.90
39983;DHT22;25670;44.782;10.356;2023-05-18T05:47:41;14.30;99.90
39983;DHT22;25670;44.782;10.356;2023-05-18T05:50:08;14.30;99.90
39983;DHT22;25670;44.782;10.356;2023-05-18T05:52:34;14.60;99.90
39983;DHT22;25670;44.782;10.356;2023-05-18T05:55:02;14.90;99.90
39983;DHT22;25670;44.782;10.356;2023-05-18T05:57:30;15.00;99.90
39983;DHT22;25670;44.782;10.356;2023-05-18T05:59:56;15.10;99.90
39983;DHT22;25670;44.782;10.356;2023-05-18T06:02:23;15.20;99.90
39983;DHT22;25670;44.782;10.356;2023-05-18T06:04:49;15.10;99.90
39983;DHT22;25670;44.782;10.356;2023-05-18T06:07:16;15.00;99.90
39983;DHT22;25670;44.782;10.356;2023-05-18T06:09:42;15.10;99.90
39983;DHT22;25670;44.782;10.356;2023-05-18T06:12:09;15.20;99.90
39983;DHT22;25670;44.782;10.356;2023-05-18T06:14:36;15.00;99.90
39983;DHT22;25670;44.782;10.356;2023-05-18T06:17:02;15.30;99.90
39983;DHT22;25670;44.782;10.356;2023-05-18T06:19:29;15.50;99.90
39983;DHT22;25670;44.782;10.356;2023-05-18T06:21:55;15.70;99.90
39983;DHT22;25670;44.782;10.356;2023-05-18T06:24:23;15.90;99.90
39983;DHT22;25670;44.782;10.356;2023-05-18T06:27:21;16.00;99.90
39983;DHT22;25670;44.782;10.356;2023-05-18T06:30:08;16.20;99.90
39983;DHT22;25670;44.782;10.356;2023-05-18T06:32:55;15.40;99.90
39983;DHT22;25670;44.782;10.356;2023-05-18T06:35:22;16.20;99.90
39983;DHT22;25670;44.782;10.356;2023-05-18T06:37:49;16.30;99.90
39983;DHT22;25670;44.782;10.356;2023-05-18T06:40:16;16.40;99.90
39983;DHT22;25670;44.782;10.356;2023-05-18T06:42:42;16.30;99.90
39983;DHT22;25670;44.782;10.356;2023-05-18T06:52:55;16.70;99.90
39983;DHT22;25670;44.782;10.356;2023-05-18T06:55:22;16.60;99.90
39983;DHT22;25670;44.782;10.356;2023-05-18T06:57:48;16.50;99.90
39983;DHT22;25670;44.782;10.356;2023-05-18T07:00:15;16.80;99.90
39983;DHT22;25670;44.782;10.356;2023-05-18T07:02:42;17.40;99.90
39983;DHT22;25670;44.782;10.356;2023-05-18T07:10:02;17.20;99.90
39983;DHT22;25670;44.782;10.356;2023-05-18T07:14:56;17.30;99.90
39983;DHT22;25670;44.782;10.356;2023-05-18T07:17:22;17.20;99.90
39983;DHT22;25670;44.782;10.356;2023-05-18T07:19:48;17.10;99.90
39983;DHT22;25670;44.782;10.356;2023-05-18T07:22:14;17.10;99.90
39983;DHT22;25670;44.782;10.356;2023-05-18T07:27:08;17.30;99.90
39983;DHT22;25670;44.782;10.356;2023-05-18T07:32:00;17.50;99.90
39983;DHT22;25670;44.782;10.356;2023-05-18T07:39:19;18.20;99.90
39983;DHT22;25670;44.782;10.356;2023-05-18T07:41:54;18.10;99.90
39983;DHT22;25670;44.782;10.356;2023-05-18T07:44:20;18.00;99.90
39983;DHT22;25670;44.782;10.356;2023-05-18T07:46:47;18.10;99.90
39983;DHT22;25670;44.782;10.356;2023-05-18T07:49:13;17.80;99.90
39983;DHT22;25670;44.782;10.356;2023-05-18T07:56:36;17.50;99.90
39983;DHT22;25670;44.782;10.356;2023-05-18T07:59:02;17.60;99.90
39983;DHT22;25670;44.782;10.356;2023-05-18T08:03:56;17.90;99.90
39983;DHT22;25670;44.782;10.356;2023-05-18T08:06:23;18.00;99.90
39983;DHT22;25670;44.782;10.356;2023-05-18T08:08:49;18.20;99.90
39983;DHT22;25670;44.782;10.356;2023-05-18T08:11:15;18.40;99.90
39983;DHT22;25670;44.782;10.356;2023-05-18T08:13:41;18.60;99.90
39983;DHT22;25670;44.782;10.356;2023-05-18T08:18:34;19.10;99.90
39983;DHT22;25670;44.782;10.356;2023-05-18T08:21:00;19.10;99.90
39983;DHT22;25670;44.782;10.356;2023-05-18T08:25:55;18.80;99.90
39983;DHT22;25670;44.782;10.356;2023-05-18T08:28:23;18.80;99.90
39983;DHT22;25670;44.782;10.356;2023-05-18T08:30:50;19.10;99.90
39983;DHT22;25670;44.782;10.356;2023-05-18T08:33:17;19.20;99.90
39983;DHT22;25670;44.782;10.356;2023-05-18T08:35:43;19.20;99.90
39983;DHT22;25670;44.782;10.356;2023-05-18T08:38:09;19.00;99.90
39983;DHT22;25670;44.782;10.356;2023-05-18T08:40:44;18.70;99.90
39983;DHT22;25670;44.782;10.356;2023-05-18T08:43:20;19.00;99.90
39983;DHT22;25670;44.782;10.356;2023-05-18T08:45:57;18.60;99.90
39983;DHT22;25670;44.782;10.356;2023-05-18T08:48:26;18.60;99.90
39983;DHT22;25670;44.782;10.356;2023-05-18T08:50:53;19.00;99.90
39983;DHT22;25670;44.782;10.356;2023-05-18T08:53:23;18.40;99.90
39983;DHT22;25670;44.782;10.356;2023-05-18T08:55:52;18.70;99.90
39983;DHT22;25670;44.782;10.356;2023-05-18T08:58:20;18.90;99.90
39983;DHT22;25670;44.782;10.356;2023-05-18T09:03:20;18.90;99.90
39983;DHT22;25670;44.782;10.356;2023-05-18T09:05:48;18.90;99.90
39983;DHT22;25670;44.782;10.356;2023-05-18T09:13:09;19.40;99.90
39983;DHT22;25670;44.782;10.356;2023-05-18T09:15:36;19.10;99.90
39983;DHT22;25670;44.782;10.356;2023-05-18T09:18:02;18.90;99.90
39983;DHT22;25670;44.782;10.356;2023-05-18T09:25:23;19.70;99.90
39983;DHT22;25670;44.782;10.356;2023-05-18T09:27:49;19.90;99.90
39983;DHT22;25670;44.782;10.356;2023-05-18T09:30:18;20.10;99.90
39983;DHT22;25670;44.782;10.356;2023-05-18T09:32:47;20.40;99.90
39983;DHT22;25670;44.782;10.356;2023-05-18T09:37:43;20.70;99.90
39983;DHT22;25670;44.782;10.356;2023-05-18T09:40:10;20.40;99.90
39983;DHT22;25670;44.782;10.356;2023-05-18T09:42:37;20.40;99.90
39983;DHT22;25670;44.782;10.356;2023-05-18T09:45:22;20.90;99.90
39983;DHT22;25670;44.782;10.356;2023-05-18T09:47:50;20.80;99.90
39983;DHT22;25670;44.782;10.356;2023-05-18T09:50:23;20.60;99.90
39983;DHT22;25670;44.782;10.356;2023-05-18T09:55:17;20.60;99.90
39983;DHT22;25670;44.782;10.356;2023-05-18T09:57:48;20.70;99.90
39983;DHT22;25670;44.782;10.356;2023-05-18T10:00:16;20.50;99.90
39983;DHT22;25670;44.782;10.356;2023-05-18T10:02:48;20.30;99.90
39983;DHT22;25670;44.782;10.356;2023-05-18T10:05:24;20.70;99.90
39983;DHT22;25670;44.782;10.356;2023-05-18T10:10:27;20.70;99.90
39983;DHT22;25670;44.782;10.356;2023-05-18T10:12:55;20.50;99.90
39983;DHT22;25670;44.782;10.356;2023-05-18T10:15:23;21.00;99.90
39983;DHT22;25670;44.782;10.356;2023-05-18T10:17:50;20.60;99.90
39983;DHT22;25670;44.782;10.356;2023-05-18T10:20:21;21.10;99.90
39983;DHT22;25670;44.782;10.356;2023-05-18T10:22:49;21.30;99.90
39983;DHT22;25670;44.782;10.356;2023-05-18T10:25:25;21.20;99.90
39983;DHT22;25670;44.782;10.356;2023-05-18T10:27:56;20.90;99.90
39983;DHT22;25670;44.782;10.356;2023-05-18T10:30:25;21.20;99.90
39983;DHT22;25670;44.782;10.356;2023-05-18T10:32:53;21.70;99.90
39983;DHT22;25670;44.782;10.356;2023-05-18T10:35:20;22.20;99.90
39983;DHT22;25670;44.782;10.356;2023-05-18T10:37:49;22.30;99.90
39983;DHT22;25670;44.782;10.356;2023-05-18T10:40:18;22.20;99.90
39983;DHT22;25670;44.782;10.356;2023-05-18T10:42:46;22.40;99.90
39983;DHT22;25670;44.782;10.356;2023-05-18T10:45:14;22.30;99.90
39983;DHT22;25670;44.782;10.356;2023-05-18T10:47:42;22.00;99.90
39983;DHT22;25670;44.782;10.356;2023-05-18T10:50:09;21.90;99.90
39983;DHT22;25670;44.782;10.356;2023-05-18T10:52:36;22.30;99.90
39983;DHT22;25670;44.782;10.356;2023-05-18T10:55:03;22.30;99.90
39983;DHT22;25670;44.782;10.356;2023-05-18T10:57:34;22.40;99.90
39983;DHT22;25670;44.782;10.356;2023-05-18T11:00:03;22.70;99.90
39983;DHT22;25670;44.782;10.356;2023-05-18T11:02:30;23.00;99.90
39983;DHT22;25670;44.782;10.356;2023-05-18T11:04:57;23.50;99.90
39983;DHT22;25670;44.782;10.356;2023-05-18T11:07:23;25.70;99.90
39983;DHT22;25670;44.782;10.356;2023-05-18T11:12:21;22.50;99.90
39983;DHT22;25670;44.782;10.356;2023-05-18T11:17:25;22.00;99.90
39983;DHT22;25670;44.782;10.356;2023-05-18T11:28:02;23.80;99.90
39983;DHT22;25670;44.782;10.356;2023-05-18T11:33:13;24.40;99.90
39983;DHT22;25670;44.782;10.356;2023-05-18T11:36:10;24.50;99.90
39983;DHT22;25670;44.782;10.356;2023-05-18T11:39:04;24.50;99.90
39983;DHT22;25670;44.782;10.356;2023-05-18T11:41:38;24.50;99.90
39983;DHT22;25670;44.782;10.356;2023-05-18T11:44:15;25.30;99.90
39983;DHT22;25670;44.782;10.356;2023-05-18T11:46:59;25.00;99.90
39983;DHT22;25670;44.782;10.356;2023-05-18T11:52:07;24.60;99.90
39983;DHT22;25670;44.782;10.356;2023-05-18T11:54:39;25.10;99.90
39983;DHT22;25670;44.782;10.356;2023-05-18T11:57:07;24.50;99.90
39983;DHT22;25670;44.782;10.356;2023-05-18T11:59:36;24.70;99.90
39983;DHT22;25670;44.782;10.356;2023-05-18T12:02:03;25.00;99.90
39983;DHT22;25670;44.782;10.356;2023-05-18T12:04:30;25.10;99.90
39983;DHT22;25670;44.782;10.356;2023-05-18T12:06:59;25.20;99.90
39983;DHT22;25670;44.782;10.356;2023-05-18T12:09:32;25.00;99.90
39983;DHT22;25670;44.782;10.356;2023-05-18T12:12:00;25.10;99.90
39983;DHT22;25670;44.782;10.356;2023-05-18T12:14:26;25.60;99.90
39983;DHT22;25670;44.782;10.356;2023-05-18T12:16:53;24.00;99.90
39983;DHT22;25670;44.782;10.356;2023-05-18T12:19:22;24.10;99.90
39983;DHT22;25670;44.782;10.356;2023-05-18T12:21:48;24.00;99.90
39983;DHT22;25670;44.782;10.356;2023-05-18T12:24:15;24.20;99.90
39983;DHT22;25670;44.782;10.356;2023-05-18T12:26:41;24.90;99.90
39983;DHT22;25670;44.782;10.356;2023-05-18T12:29:12;25.20;99.90
39983;DHT22;25670;44.782;10.356;2023-05-18T12:31:45;25.30;99.90
39983;DHT22;25670;44.782;10.356;2023-05-18T12:34:12;26.50;99.90
39983;DHT22;25670;44.782;10.356;2023-05-18T12:36:50;26.10;99.90
39983;DHT22;25670;44.782;10.356;2023-05-18T12:39:17;25.00;99.90
39983;DHT22;25670;44.782;10.356;2023-05-18T12:41:44;25.30;99.90
39983;DHT22;25670;44.782;10.356;2023-05-18T12:44:10;25.80;99.90
39983;DHT22;25670;44.782;10.356;2023-05-18T12:46:36;26.10;99.90
39983;DHT22;25670;44.782;10.356;2023-05-18T12:49:03;25.40;99.90
39983;DHT22;25670;44.782;10.356;2023-05-18T12:51:32;25.40;99.90
39983;DHT22;25670;44.782;10.356;2023-05-18T12:54:03;25.20;99.90
39983;DHT22;25670;44.782;10.356;2023-05-18T12:56:49;24.90;98.50
39983;DHT22;25670;44.782;10.356;2023-05-18T12:59:24;25.00;99.90
39983;DHT22;25670;44.782;10.356;2023-05-18T13:01:52;25.10;99.90
39983;DHT22;25670;44.782;10.356;2023-05-18T13:04:19;26.00;99.40
39983;DHT22;25670;44.782;10.356;2023-05-18T13:06:45;26.30;97.50
39983;DHT22;25670;44.782;10.356;2023-05-18T13:09:12;25.90;97.40
39983;DHT22;25670;44.782;10.356;2023-05-18T13:11:38;25.90;98.80
39983;DHT22;25670;44.782;10.356;2023-05-18T13:14:07;27.20;97.60
39983;DHT22;25670;44.782;10.356;2023-05-18T13:16:36;27.70;97.20
39983;DHT22;25670;44.782;10.356;2023-05-18T13:19:05;27.50;96.70
39983;DHT22;25670;44.782;10.356;2023-05-18T13:21:32;27.20;97.10
39983;DHT22;25670;44.782;10.356;2023-05-18T13:23:59;25.80;96.80
39983;DHT22;25670;44.782;10.356;2023-05-18T13:26:26;26.50;96.60
39983;DHT22;25670;44.782;10.356;2023-05-18T13:28:54;26.40;97.40
39983;DHT22;25670;44.782;10.356;2023-05-18T13:31:21;27.00;97.90
39983;DHT22;25670;44.782;10.356;2023-05-18T13:33:49;27.00;97.30
39983;DHT22;25670;44.782;10.356;2023-05-18T13:36:16;27.20;96.60
39983;DHT22;25670;44.782;10.356;2023-05-18T13:38:42;27.40;95.80
39983;DHT22;25670;44.782;10.356;2023-05-18T13:41:10;27.70;96.30
39983;DHT22;25670;44.782;10.356;2023-05-18T13:43:37;28.30;95.00
39983;DHT22;25670;44.782;10.356;2023-05-18T13:46:03;27.70;94.90
39983;DHT22;25670;44.782;10.356;2023-05-18T13:48:29;27.60;94.50
39983;DHT22;25670;44.782;10.356;2023-05-18T13:50:56;26.90;95.90
39983;DHT22;25670;44.782;10.356;2023-05-18T13:53:22;26.70;95.20
39983;DHT22;25670;44.782;10.356;2023-05-18T13:55:49;26.30;96.60
39983;DHT22;25670;44.782;10.356;2023-05-18T13:58:15;26.00;96.30
39983;DHT22;25670;44.782;10.356;2023-05-18T14:00:41;26.50;96.30
39983;DHT22;25670;44.782;10.356;2023-05-18T14:03:07;26.40;96.00
39983;DHT22;25670;44.782;10.356;2023-05-18T14:05:35;26.60;98.10
39983;DHT22;25670;44.782;10.356;2023-05-18T14:08:01;26.70;96.50
39983;DHT22;25670;44.782;10.356;2023-05-18T14:10:28;27.10;96.20
39983;DHT22;25670;44.782;10.356;2023-05-18T14:12:54;27.70;96.00
39983;DHT22;25670;44.782;10.356;2023-05-18T14:15:20;27.60;94.20
39983;DHT22;25670;44.782;10.356;2023-05-18T14:17:47;27.50;93.90
39983;DHT22;25670;44.782;10.356;2023-05-18T14:20:13;27.40;92.40
39983;DHT22;25670;44.782;10.356;2023-05-18T14:22:39;26.40;94.80
39983;DHT22;25670;44.782;10.356;2023-05-18T14:27:32;27.00;94.40
39983;DHT22;25670;44.782;10.356;2023-05-18T14:29:58;27.30;95.00
39983;DHT22;25670;44.782;10.356;2023-05-18T14:32:25;27.00;94.20
39983;DHT22;25670;44.782;10.356;2023-05-18T14:34:51;27.10;93.90
39983;DHT22;25670;44.782;10.356;2023-05-18T14:37:20;27.70;94.50
39983;DHT22;25670;44.782;10.356;2023-05-18T14:39:46;28.00;94.00
39983;DHT22;25670;44.782;10.356;2023-05-18T14:42:12;28.70;93.30
39983;DHT22;25670;44.782;10.356;2023-05-18T14:44:39;28.70;92.70
39983;DHT22;25670;44.782;10.356;2023-05-18T14:47:05;29.80;92.30
39983;DHT22;25670;44.782;10.356;2023-05-18T14:49:31;29.70;91.10
39983;DHT22;25670;44.782;10.356;2023-05-18T14:51:58;29.00;91.50
39983;DHT22;25670;44.782;10.356;2023-05-18T14:54:24;27.10;92.60
39983;DHT22;25670;44.782;10.356;2023-05-18T14:56:50;27.50;94.30
39983;DHT22;25670;44.782;10.356;2023-05-18T14:59:16;27.10;93.80
39983;DHT22;25670;44.782;10.356;2023-05-18T15:01:43;26.90;93.30
39983;DHT22;25670;44.782;10.356;2023-05-18T15:04:10;27.30;93.00
39983;DHT22;25670;44.782;10.356;2023-05-18T15:06:36;27.40;94.00
39983;DHT22;25670;44.782;10.356;2023-05-18T15:09:03;27.20;93.10
39983;DHT22;25670;44.782;10.356;2023-05-18T15:11:31;27.80;94.30
39983;DHT22;25670;44.782;10.356;2023-05-18T15:13:57;27.60;93.60
39983;DHT22;25670;44.782;10.356;2023-05-18T15:16:23;28.60;92.30
39983;DHT22;25670;44.782;10.356;2023-05-18T15:18:49;29.30;91.70
39983;DHT22;25670;44.782;10.356;2023-05-18T15:21:15;30.60;90.60
39983;DHT22;25670;44.782;10.356;2023-05-18T15:23:41;31.90;90.30
39983;DHT22;25670;44.782;10.356;2023-05-18T15:26:08;31.90;87.50
39983;DHT22;25670;44.782;10.356;2023-05-18T15:28:34;31.90;86.60
39983;DHT22;25670;44.782;10.356;2023-05-18T15:31:00;30.60;86.20
39983;DHT22;25670;44.782;10.356;2023-05-18T15:33:26;30.10;86.60
39983;DHT22;25670;44.782;10.356;2023-05-18T15:35:52;29.70;87.40
39983;DHT22;25670;44.782;10.356;2023-05-18T15:38:19;29.80;88.40
39983;DHT22;25670;44.782;10.356;2023-05-18T15:40:45;29.70;85.90
39983;DHT22;25670;44.782;10.356;2023-05-18T15:43:12;30.60;85.90
39983;DHT22;25670;44.782;10.356;2023-05-18T15:45:39;30.50;86.20
39983;DHT22;25670;44.782;10.356;2023-05-18T15:48:05;30.20;86.20
39983;DHT22;25670;44.782;10.356;2023-05-18T15:50:31;29.30;87.10
39983;DHT22;25670;44.782;10.356;2023-05-18T15:52:58;29.90;87.10
39983;DHT22;25670;44.782;10.356;2023-05-18T15:55:24;30.30;86.20
39983;DHT22;25670;44.782;10.356;2023-05-18T15:57:50;31.20;83.60
39983;DHT22;25670;44.782;10.356;2023-05-18T16:00:16;30.70;84.20
39983;DHT22;25670;44.782;10.356;2023-05-18T16:02:46;31.20;82.50
39983;DHT22;25670;44.782;10.356;2023-05-18T16:05:13;31.90;82.30
39983;DHT22;25670;44.782;10.356;2023-05-18T16:07:39;31.70;80.90
39983;DHT22;25670;44.782;10.356;2023-05-18T16:10:07;31.70;82.40
39983;DHT22;25670;44.782;10.356;2023-05-18T16:12:33;32.00;81.10
39983;DHT22;25670;44.782;10.356;2023-05-18T16:15:00;32.20;81.00
39983;DHT22;25670;44.782;10.356;2023-05-18T16:17:26;31.50;82.30
39983;DHT22;25670;44.782;10.356;2023-05-18T16:19:52;31.00;82.10
39983;DHT22;25670;44.782;10.356;2023-05-18T16:22:18;29.20;83.60
39983;DHT22;25670;44.782;10.356;2023-05-18T16:24:45;29.30;83.40
39983;DHT22;25670;44.782;10.356;2023-05-18T16:27:11;29.00;85.20
39983;DHT22;25670;44.782;10.356;2023-05-18T16:29:37;28.00;87.10
39983;DHT22;25670;44.782;10.356;2023-05-18T16:32:04;27.20;86.90
39983;DHT22;25670;44.782;10.356;2023-05-18T16:36:57;27.40;88.90
39983;DHT22;25670;44.782;10.356;2023-05-18T16:39:24;28.20;87.90
39983;DHT22;25670;44.782;10.356;2023-05-18T16:44:17;26.90;88.70
39983;DHT22;25670;44.782;10.356;2023-05-18T16:46:44;25.80;90.30
39983;DHT22;25670;44.782;10.356;2023-05-18T16:51:36;26.00;91.70
39983;DHT22;25670;44.782;10.356;2023-05-18T16:54:03;25.60;91.40
39983;DHT22;25670;44.782;10.356;2023-05-18T17:01:24;24.30;93.60
39983;DHT22;25670;44.782;10.356;2023-05-18T17:08:45;24.40;94.50
39983;DHT22;25670;44.782;10.356;2023-05-18T17:11:12;24.60;93.60
39983;DHT22;25670;44.782;10.356;2023-05-18T17:13:38;24.60;95.00
39983;DHT22;25670;44.782;10.356;2023-05-18T17:16:05;24.50;95.40
39983;DHT22;25670;44.782;10.356;2023-05-18T17:20:57;22.80;98.60
39983;DHT22;25670;44.782;10.356;2023-05-18T17:23:24;22.70;99.90
39983;DHT22;25670;44.782;10.356;2023-05-18T17:25:50;22.40;99.90
39983;DHT22;25670;44.782;10.356;2023-05-18T17:28:17;21.90;99.90
39983;DHT22;25670;44.782;10.356;2023-05-18T17:45:23;20.00;99.90
39983;DHT22;25670;44.782;10.356;2023-05-18T17:47:50;20.20;99.90
39983;DHT22;25670;44.782;10.356;2023-05-18T18:00:11;19.30;99.90
39983;DHT22;25670;44.782;10.356;2023-05-18T18:05:06;19.30;99.90
39983;DHT22;25670;44.782;10.356;2023-05-18T18:07:32;18.90;99.90
39983;DHT22;25670;44.782;10.356;2023-05-18T18:12:25;18.60;99.90
39983;DHT22;25670;44.782;10.356;2023-05-18T18:17:18;18.30;99.90
39983;DHT22;25670;44.782;10.356;2023-05-18T18:34:24;17.90;99.90
39983;DHT22;25670;44.782;10.356;2023-05-18T18:41:43;17.50;99.90
39983;DHT22;25670;44.782;10.356;2023-05-18T18:46:36;17.30;99.90
39983;DHT22;25670;44.782;10.356;2023-05-18T18:56:23;17.20;99.90
39983;DHT22;25670;44.782;10.356;2023-05-18T19:03:42;16.70;99.90
39983;DHT22;25670;44.782;10.356;2023-05-18T19:06:09;17.00;99.90
39983;DHT22;25670;44.782;10.356;2023-05-18T19:15:56;16.40;99.90
39983;DHT22;25670;44.782;10.356;2023-05-18T19:25:42;16.20;99.90
39983;DHT22;25670;44.782;10.356;2023-05-18T19:35:28;15.90;99.90
39983;DHT22;25670;44.782;10.356;2023-05-18T19:45:18;16.00;99.90
39983;DHT22;25670;44.782;10.356;2023-05-18T19:52:37;15.20;99.90
39983;DHT22;25670;44.782;10.356;2023-05-18T19:55:04;15.90;99.90
39983;DHT22;25670;44.782;10.356;2023-05-18T20:12:12;15.70;99.90
39983;DHT22;25670;44.782;10.356;2023-05-18T20:14:38;15.70;99.90
39983;DHT22;25670;44.782;10.356;2023-05-18T20:17:05;15.60;99.90
39983;DHT22;25670;44.782;10.356;2023-05-18T20:26:51;15.40;99.90
39983;DHT22;25670;44.782;10.356;2023-05-18T20:34:11;15.00;99.90
39983;DHT22;25670;44.782;10.356;2023-05-18T20:48:56;14.80;99.90
39983;DHT22;25670;44.782;10.356;2023-05-18T20:58:43;14.80;99.90
39983;DHT22;25670;44.782;10.356;2023-05-18T21:01:16;14.50;99.90
39983;DHT22;25670;44.782;10.356;2023-05-18T21:06:10;14.70;99.90
39983;DHT22;25670;44.782;10.356;2023-05-18T21:11:05;14.60;99.90
39983;DHT22;25670;44.782;10.356;2023-05-18T21:18:40;14.20;99.90
39983;DHT22;25670;44.782;10.356;2023-05-18T21:26:01;14.40;99.90
39983;DHT22;25670;44.782;10.356;2023-05-18T21:30:54;14.50;99.90
39983;DHT22;25670;44.782;10.356;2023-05-18T21:38:15;12.50;99.90
39983;DHT22;25670;44.782;10.356;2023-05-18T21:40:41;14.60;99.90